Time;durP1;ratioP1;P1;durP2;ratioP2;P2;SDS_P1;SDS_P2;PMS_P1;PMS_P2;Temp;Humidity;BMP_temperature;BMP_pressure;BME280_temperature;BME280_humidity;BME280_pressure;Samples;Min_cycle;Max_cycle;Signal;HPM_P1;HPM_P2
2022/11/29 00:02:25;;;;;;;24.70;17.83;;;6.70;41.30;;;;;;5042050;28;20478;-64
2022/11/29 00:04:52;;;;;;;24.43;18.80;;;6.70;41.30;;;;;;5048695;28;21187;-63
2022/11/29 00:07:18;;;;;;;26.20;19.07;;;6.70;41.30;;;;;;5044634;28;20462;-63
2022/11/29 00:09:45;;;;;;;25.53;17.93;;;6.70;41.30;;;;;;5054397;28;20489;-63
2022/11/29 00:12:12;;;;;;;23.13;17.90;;;6.70;41.40;;;;;;5050904;28;20470;-64
2022/11/29 00:14:40;;;;;;;24.23;18.10;;;6.70;41.40;;;;;;5051447;28;20454;-64
2022/11/29 00:17:07;;;;;;;24.00;17.40;;;6.70;41.40;;;;;;5046417;28;20476;-64
2022/11/29 00:19:36;;;;;;;22.80;16.90;;;6.70;41.40;;;;;;5044095;28;20480;-64
2022/11/29 00:22:03;;;;;;;25.07;17.80;;;6.70;41.40;;;;;;5048170;28;20973;-63
2022/11/29 00:24:31;;;;;;;23.30;16.50;;;6.70;41.40;;;;;;5043182;28;20473;-63
2022/11/29 00:26:58;;;;;;;23.70;17.70;;;6.70;41.40;;;;;;5046879;28;20462;-63
2022/11/29 00:29:25;;;;;;;30.43;17.07;;;6.80;41.40;;;;;;5045532;28;20501;-64
2022/11/29 00:31:53;;;;;;;23.40;16.17;;;6.80;41.60;;;;;;5042392;28;20502;-64
2022/11/29 00:34:20;;;;;;;25.47;18.00;;;6.80;41.60;;;;;;5039427;28;20458;-63
2022/11/29 00:36:47;;;;;;;23.00;15.73;;;6.80;41.40;;;;;;5048198;28;20455;-63
2022/11/29 00:39:15;;;;;;;20.40;15.67;;;6.80;41.50;;;;;;5047847;28;20487;-63
2022/11/29 00:41:42;;;;;;;29.30;17.07;;;6.90;41.60;;;;;;5044472;28;20825;-64
2022/11/29 00:44:09;;;;;;;20.27;15.07;;;6.90;41.70;;;;;;5044634;28;20839;-64
2022/11/29 00:46:36;;;;;;;22.77;15.83;;;6.90;41.80;;;;;;5044878;28;20457;-64
2022/11/29 00:49:05;;;;;;;24.10;16.10;;;6.90;41.90;;;;;;5046748;28;20496;-64
2022/11/29 00:51:32;;;;;;;20.87;14.17;;;6.80;41.80;;;;;;5043913;28;20478;-63
2022/11/29 00:53:58;;;;;;;22.37;17.03;;;6.90;42.00;;;;;;5042662;28;20489;-64
2022/11/29 00:56:25;;;;;;;22.37;15.07;;;6.80;42.00;;;;;;5040687;28;20473;-64
2022/11/29 00:58:52;;;;;;;23.20;16.57;;;6.90;42.10;;;;;;5049314;28;20641;-64
2022/11/29 01:01:19;;;;;;;23.23;16.13;;;6.90;42.10;;;;;;5047365;28;20978;-64
2022/11/29 01:03:46;;;;;;;21.20;15.60;;;6.90;42.20;;;;;;5039566;28;20455;-64
2022/11/29 01:06:16;;;;;;;26.70;16.60;;;6.90;42.20;;;;;;5054038;28;20462;-64
2022/11/29 01:08:44;;;;;;;23.43;16.63;;;6.90;42.30;;;;;;5043355;28;20481;-65
2022/11/29 01:11:13;;;;;;;24.00;15.47;;;6.90;42.10;;;;;;5051110;28;20486;-65
2022/11/29 01:13:40;;;;;;;24.37;17.57;;;7.00;42.10;;;;;;5042117;28;20463;-64
2022/11/29 01:16:07;;;;;;;21.90;16.60;;;7.00;42.20;;;;;;5044973;28;20468;-64
2022/11/29 01:18:35;;;;;;;23.57;17.13;;;7.00;42.20;;;;;;5041612;28;20458;-64
2022/11/29 01:21:04;;;;;;;22.17;17.27;;;7.00;42.20;;;;;;5049099;28;20483;-64
2022/11/29 01:23:33;;;;;;;22.73;16.40;;;7.00;42.20;;;;;;5041399;28;20461;-64
2022/11/29 01:26:03;;;;;;;21.37;15.47;;;7.00;42.20;;;;;;5044916;28;20457;-63
2022/11/29 01:28:30;;;;;;;25.83;17.50;;;7.00;42.20;;;;;;5046825;28;20600;-64
2022/11/29 01:30:57;;;;;;;22.67;16.73;;;7.00;42.10;;;;;;5049256;28;20475;-64
2022/11/29 01:33:24;;;;;;;24.53;16.60;;;7.00;42.10;;;;;;5049225;28;20454;-64
2022/11/29 01:35:52;;;;;;;26.20;17.30;;;7.00;42.20;;;;;;5050432;28;20463;-64
2022/11/29 01:38:20;;;;;;;24.33;17.93;;;7.00;42.20;;;;;;5051318;28;20462;-64
2022/11/29 01:40:58;;;;;;;25.13;16.60;;;7.00;42.20;;;;;;5048939;28;20481;-64
2022/11/29 01:43:25;;;;;;;26.20;17.60;;;7.00;42.30;;;;;;5039619;28;20455;-64
2022/11/29 01:45:52;;;;;;;24.50;17.30;;;7.10;42.30;;;;;;5053193;28;20457;-64
2022/11/29 01:48:22;;;;;;;22.83;16.77;;;7.00;42.30;;;;;;5049224;28;20466;-64
2022/11/29 01:50:49;;;;;;;25.50;18.23;;;7.10;42.40;;;;;;5047333;28;20998;-64
2022/11/29 01:53:16;;;;;;;26.40;18.43;;;7.00;42.30;;;;;;5036889;28;20470;-63
2022/11/29 01:55:47;;;;;;;22.57;17.17;;;7.10;42.40;;;;;;5048891;28;20954;-63
2022/11/29 01:58:17;;;;;;;26.63;18.20;;;7.10;42.30;;;;;;5049686;28;20467;-63
2022/11/29 02:00:44;;;;;;;23.63;16.97;;;7.00;42.30;;;;;;5039202;28;20494;-63
2022/11/29 02:03:14;;;;;;;24.93;17.67;;;7.00;42.30;;;;;;5044319;28;20474;-64
2022/11/29 02:05:43;;;;;;;29.03;19.87;;;7.00;42.30;;;;;;5047684;28;20454;-63
2022/11/29 02:08:13;;;;;;;25.00;18.40;;;7.00;42.30;;;;;;5039067;28;20463;-63
2022/11/29 02:10:57;;;;;;;23.47;18.13;;;7.00;42.30;;;;;;5042022;28;20673;-63
2022/11/29 02:13:36;;;;;;;26.20;18.37;;;7.00;42.50;;;;;;5038510;28;20946;-64
2022/11/29 02:16:07;;;;;;;25.80;18.80;;;7.00;43.10;;;;;;5043175;28;21029;-64
2022/11/29 02:18:46;;;;;;;26.80;20.10;;;7.00;42.40;;;;;;5048173;28;20462;-64
2022/11/29 02:21:24;;;;;;;25.57;18.30;;;7.00;42.50;;;;;;5030619;28;20458;-64
2022/11/29 02:24:18;;;;;;;29.10;20.53;;;7.00;42.50;;;;;;5045720;28;20454;-64
2022/11/29 02:27:15;;;;;;;25.43;18.33;;;7.00;42.60;;;;;;5036175;28;20455;-64
2022/11/29 02:30:08;;;;;;;23.43;17.60;;;7.00;42.70;;;;;;5044419;28;20488;-63
2022/11/29 02:33:05;;;;;;;23.40;18.23;;;7.00;42.70;;;;;;5041048;28;21009;-63
2022/11/29 02:36:24;;;;;;;25.00;18.10;;;7.00;42.80;;;;;;5052031;28;20466;-64
2022/11/29 02:39:18;;;;;;;25.20;18.10;;;7.00;42.80;;;;;;5047184;28;20508;-64
2022/11/29 02:41:56;;;;;;;26.90;19.63;;;7.00;42.80;;;;;;5027693;28;20864;-64
2022/11/29 02:44:52;;;;;;;26.67;19.70;;;7.00;42.80;;;;;;5043842;28;20470;-64
2022/11/29 02:47:29;;;;;;;27.40;20.07;;;7.00;42.90;;;;;;5033318;28;20465;-64
2022/11/29 02:50:17;;;;;;;28.03;21.67;;;7.00;42.90;;;;;;5046591;28;20482;-63
2022/11/29 02:52:52;;;;;;;29.87;19.90;;;7.00;43.10;;;;;;5046667;28;20458;-63
2022/11/29 02:55:27;;;;;;;29.10;21.63;;;7.00;43.00;;;;;;5051588;28;20468;-63
2022/11/29 02:58:00;;;;;;;27.87;19.40;;;7.10;43.10;;;;;;5036902;28;20457;-64
2022/11/29 03:00:27;;;;;;;29.60;19.67;;;7.10;43.10;;;;;;5040943;28;20476;-64
2022/11/29 03:03:02;;;;;;;30.47;21.17;;;7.10;43.10;;;;;;5043358;28;20459;-64
2022/11/29 03:05:40;;;;;;;26.27;19.43;;;7.10;43.20;;;;;;5042585;28;20710;-63
2022/11/29 03:08:16;;;;;;;27.33;20.70;;;7.20;43.10;;;;;;5042439;28;20461;-63
2022/11/29 03:10:52;;;;;;;27.93;20.33;;;7.20;43.20;;;;;;5041336;28;20521;-64
2022/11/29 03:13:24;;;;;;;30.53;21.37;;;7.20;43.10;;;;;;5049623;28;20461;-64
2022/11/29 03:15:58;;;;;;;32.40;21.77;;;7.20;43.40;;;;;;5041156;28;20466;-64
2022/11/29 03:18:34;;;;;;;27.43;19.93;;;7.30;43.50;;;;;;5040151;28;20467;-64
2022/11/29 03:21:12;;;;;;;29.10;20.80;;;7.30;43.60;;;;;;5048148;28;20476;-64
2022/11/29 03:23:44;;;;;;;32.57;20.90;;;7.30;43.60;;;;;;5043798;28;20457;-64
2022/11/29 03:26:15;;;;;;;28.27;20.47;;;7.30;44.10;;;;;;5042055;28;20457;-63
2022/11/29 03:28:46;;;;;;;32.77;19.97;;;7.30;43.50;;;;;;5043153;28;21290;-66
2022/11/29 03:31:26;;;;;;;25.90;20.40;;;7.30;43.60;;;;;;5045187;28;20482;-64
2022/11/29 03:34:02;;;;;;;26.23;19.63;;;7.30;43.60;;;;;;5049182;28;20454;-64
2022/11/29 03:36:40;;;;;;;26.60;19.70;;;7.30;43.70;;;;;;5037769;28;20470;-64
2022/11/29 03:39:13;;;;;;;31.93;22.10;;;7.30;43.60;;;;;;5046733;28;20589;-64
2022/11/29 03:41:46;;;;;;;30.07;20.20;;;7.30;43.70;;;;;;5047371;28;20458;-63
2022/11/29 03:44:17;;;;;;;28.80;19.43;;;7.40;43.60;;;;;;5042742;28;20466;-63
2022/11/29 03:46:52;;;;;;;24.70;19.80;;;7.30;43.70;;;;;;5046451;28;20468;-65
2022/11/29 03:49:25;;;;;;;29.60;19.67;;;7.30;43.70;;;;;;5047714;28;20479;-64
2022/11/29 03:52:02;;;;;;;33.00;21.10;;;7.30;43.90;;;;;;5049474;28;20478;-64
2022/11/29 03:54:37;;;;;;;29.67;18.97;;;7.30;43.70;;;;;;5040651;28;20454;-64
2022/11/29 03:57:06;;;;;;;23.80;19.00;;;7.30;43.60;;;;;;5049192;28;20448;-64
2022/11/29 03:59:52;;;;;;;27.53;20.23;;;7.30;43.70;;;;;;5039497;28;20527;-65
2022/11/29 04:02:54;;;;;;;26.37;19.03;;;7.30;43.90;;;;;;5036597;28;20847;-64
2022/11/29 04:05:59;;;;;;;29.70;21.47;;;7.30;44.00;;;;;;5048229;28;20457;-65
2022/11/29 04:08:59;;;;;;;25.63;19.20;;;7.30;44.10;;;;;;5043253;28;21032;-64
2022/11/29 04:11:57;;;;;;;26.70;19.00;;;7.30;44.10;;;;;;5029071;28;20490;-64
2022/11/29 04:14:50;;;;;;;24.70;18.83;;;7.30;44.00;;;;;;5043766;28;20462;-64
2022/11/29 04:17:47;;;;;;;27.33;19.03;;;7.30;44.10;;;;;;5043567;28;20544;-64
2022/11/29 04:20:46;;;;;;;27.70;19.87;;;7.30;44.30;;;;;;5044919;28;20477;-63
2022/11/29 04:23:42;;;;;;;25.93;19.33;;;7.30;44.20;;;;;;5002049;28;20458;-63
2022/11/29 04:26:34;;;;;;;27.73;19.67;;;7.30;44.30;;;;;;5043629;28;20465;-64
2022/11/29 04:29:19;;;;;;;27.77;18.70;;;7.30;44.30;;;;;;5040136;28;20458;-65
2022/11/29 04:32:10;;;;;;;28.23;18.63;;;7.30;44.30;;;;;;5045196;28;21011;-63
2022/11/29 04:35:10;;;;;;;26.63;19.10;;;7.40;44.30;;;;;;5047801;28;20463;-63
2022/11/29 04:38:02;;;;;;;29.20;20.87;;;7.30;44.20;;;;;;5040055;28;20461;-63
2022/11/29 04:40:46;;;;;;;27.43;19.20;;;7.40;44.20;;;;;;5045012;28;20480;-63
2022/11/29 04:43:27;;;;;;;30.00;19.67;;;7.40;44.10;;;;;;5042165;28;20459;-64
2022/11/29 04:46:19;;;;;;;28.23;20.03;;;7.40;44.30;;;;;;5043650;28;20453;-64
2022/11/29 04:49:10;;;;;;;24.77;18.70;;;7.40;44.40;;;;;;5040206;28;20472;-64
2022/11/29 04:51:51;;;;;;;37.23;21.27;;;7.40;44.40;;;;;;5035588;28;20524;-63
2022/11/29 04:54:28;;;;;;;27.07;19.23;;;7.40;44.30;;;;;;5043320;28;20457;-64
2022/11/29 04:57:04;;;;;;;28.63;19.57;;;7.40;44.30;;;;;;5038774;28;20454;-64
2022/11/29 04:59:40;;;;;;;27.13;19.87;;;7.40;44.20;;;;;;5042499;28;20490;-64
2022/11/29 05:02:31;;;;;;;29.33;20.10;;;7.40;44.30;;;;;;5036103;28;20473;-64
2022/11/29 05:05:06;;;;;;;28.90;19.37;;;7.40;44.90;;;;;;5044278;28;21021;-63
2022/11/29 05:07:39;;;;;;;26.33;19.83;;;7.40;44.30;;;;;;5040721;28;20461;-64
2022/11/29 05:10:21;;;;;;;26.90;19.37;;;7.40;44.10;;;;;;5042413;28;21001;-64
2022/11/29 05:12:57;;;;;;;28.03;19.97;;;7.40;44.20;;;;;;5039780;28;20487;-64
2022/11/29 05:15:39;;;;;;;28.97;20.00;;;7.40;44.30;;;;;;5036457;28;20461;-63
2022/11/29 05:18:18;;;;;;;30.30;20.40;;;7.40;44.20;;;;;;5042685;28;20458;-64
2022/11/29 05:20:50;;;;;;;28.97;20.77;;;7.40;44.20;;;;;;5046409;28;20484;-64
2022/11/29 05:23:32;;;;;;;33.00;19.93;;;7.40;44.10;;;;;;5037510;28;20458;-63
2022/11/29 05:26:05;;;;;;;30.00;20.67;;;7.40;44.30;;;;;;5042026;28;20465;-63
2022/11/29 05:28:43;;;;;;;28.67;20.33;;;7.40;44.10;;;;;;5044190;28;20966;-63
2022/11/29 05:31:24;;;;;;;31.40;20.43;;;7.40;44.10;;;;;;5034108;28;20475;-63
2022/11/29 05:34:12;;;;;;;31.07;19.80;;;7.40;44.30;;;;;;5051603;28;20483;-64
2022/11/29 05:36:43;;;;;;;28.40;20.50;;;7.40;44.20;;;;;;5029196;28;20458;-63
2022/11/29 05:39:27;;;;;;;28.53;19.10;;;7.40;44.00;;;;;;5049621;28;20855;-63
2022/11/29 05:42:08;;;;;;;33.67;21.90;;;7.40;44.10;;;;;;5055057;28;20455;-63
2022/11/29 05:44:41;;;;;;;30.33;20.07;;;7.40;44.10;;;;;;5044556;28;20462;-64
2022/11/29 05:47:09;;;;;;;28.63;18.57;;;7.50;44.10;;;;;;5043529;28;20469;-63
2022/11/29 05:49:44;;;;;;;29.20;20.63;;;7.40;43.90;;;;;;5056165;28;20474;-63
2022/11/29 05:52:23;;;;;;;31.40;20.90;;;7.40;44.00;;;;;;5044928;28;20481;-63
2022/11/29 05:55:03;;;;;;;29.47;20.40;;;7.40;44.10;;;;;;5048160;28;20976;-63
2022/11/29 05:57:41;;;;;;;31.53;20.40;;;7.50;44.00;;;;;;5041718;28;20458;-63
2022/11/29 06:00:13;;;;;;;32.13;20.67;;;7.50;44.10;;;;;;5049818;28;21021;-64
2022/11/29 06:02:50;;;;;;;28.10;18.77;;;7.50;44.10;;;;;;5052358;28;20546;-64
2022/11/29 06:05:25;;;;;;;32.30;20.63;;;7.50;44.00;;;;;;5049632;28;20954;-64
2022/11/29 06:07:58;;;;;;;28.53;21.03;;;7.50;43.90;;;;;;5051350;28;20470;-63
2022/11/29 06:10:31;;;;;;;30.00;20.50;;;7.50;44.10;;;;;;5049572;28;20477;-64
2022/11/29 06:13:09;;;;;;;31.07;20.27;;;7.50;44.10;;;;;;5058241;28;20474;-63
2022/11/29 06:16:12;;;;;;;33.50;21.23;;;7.40;43.90;;;;;;5043492;28;20910;-64
2022/11/29 06:19:15;;;;;;;30.30;21.10;;;7.40;44.20;;;;;;5040310;28;20454;-63
2022/11/29 06:21:51;;;;;;;32.73;21.17;;;7.40;44.10;;;;;;5041227;28;20486;-63
2022/11/29 06:24:36;;;;;;;29.13;20.33;;;7.40;43.90;;;;;;5039769;28;20472;-63
2022/11/29 06:27:21;;;;;;;35.27;20.00;;;7.40;44.10;;;;;;5055604;28;21000;-63
2022/11/29 06:29:55;;;;;;;29.13;19.43;;;7.40;44.10;;;;;;5042845;28;20490;-63
2022/11/29 06:32:35;;;;;;;27.90;19.80;;;7.40;43.90;;;;;;5040045;28;21025;-63
2022/11/29 06:35:07;;;;;;;31.37;20.10;;;7.40;44.00;;;;;;5052356;28;20461;-63
2022/11/29 06:37:38;;;;;;;31.27;20.87;;;7.40;43.90;;;;;;5046285;28;20459;-63
2022/11/29 06:40:10;;;;;;;34.13;21.03;;;7.50;44.00;;;;;;5050013;28;20477;-63
2022/11/29 06:42:37;;;;;;;28.80;19.40;;;7.40;43.90;;;;;;5025359;28;20460;-64
2022/11/29 06:45:05;;;;;;;31.07;20.87;;;7.40;44.00;;;;;;5056141;28;20449;-63
2022/11/29 06:47:41;;;;;;;33.90;21.90;;;7.40;44.10;;;;;;5038048;28;20459;-63
2022/11/29 06:50:25;;;;;;;30.27;19.73;;;7.40;44.00;;;;;;5053058;28;21020;-63
2022/11/29 06:53:00;;;;;;;29.70;20.23;;;7.40;44.10;;;;;;5048318;28;20477;-63
2022/11/29 06:55:38;;;;;;;31.40;21.27;;;7.40;44.10;;;;;;5036658;28;20466;-63
2022/11/29 06:58:22;;;;;;;29.60;21.40;;;7.40;44.00;;;;;;5045815;28;20461;-63
2022/11/29 07:00:59;;;;;;;33.07;20.90;;;7.40;44.10;;;;;;5043604;28;20471;-63
2022/11/29 07:03:44;;;;;;;33.70;20.37;;;7.40;44.00;;;;;;5055366;28;20450;-63
2022/11/29 07:06:16;;;;;;;33.67;21.87;;;7.50;44.20;;;;;;5041810;28;21098;-65
2022/11/29 07:08:47;;;;;;;29.93;20.67;;;7.50;44.10;;;;;;5051746;28;20466;-64
2022/11/29 07:11:14;;;;;;;29.73;20.37;;;7.50;44.00;;;;;;5039039;28;20458;-63
2022/11/29 07:13:41;;;;;;;33.87;21.17;;;7.50;43.90;;;;;;5051264;28;20470;-63
2022/11/29 07:16:17;;;;;;;32.20;20.43;;;7.60;43.80;;;;;;5039929;28;20463;-64
2022/11/29 07:18:49;;;;;;;31.60;19.80;;;7.60;43.90;;;;;;5039478;28;20454;-63
2022/11/29 07:21:24;;;;;;;29.50;19.23;;;7.60;43.70;;;;;;5039469;28;20832;-64
2022/11/29 07:24:03;;;;;;;29.27;19.27;;;7.60;43.70;;;;;;5042180;28;20463;-63
2022/11/29 07:26:38;;;;;;;28.40;19.37;;;7.60;43.80;;;;;;5052328;28;21001;-64
2022/11/29 07:29:18;;;;;;;27.80;18.20;;;7.70;43.70;;;;;;5031609;28;20485;-63
2022/11/29 07:31:55;;;;;;;29.53;19.70;;;7.70;43.90;;;;;;5041766;28;20593;-64
2022/11/29 07:34:30;;;;;;;27.50;17.77;;;7.70;43.60;;;;;;5052109;28;20572;-64
2022/11/29 07:37:03;;;;;;;28.63;17.83;;;7.70;43.70;;;;;;5045035;28;20481;-63
2022/11/29 07:39:41;;;;;;;30.87;18.47;;;7.70;43.60;;;;;;5051837;28;20478;-64
2022/11/29 07:42:15;;;;;;;29.83;21.47;;;7.70;43.70;;;;;;5038986;28;20445;-64
2022/11/29 07:44:52;;;;;;;26.90;18.50;;;7.80;43.40;;;;;;5038605;28;20508;-64
2022/11/29 07:47:19;;;;;;;29.03;18.90;;;7.80;43.30;;;;;;5045565;28;20454;-64
2022/11/29 07:49:45;;;;;;;29.53;19.60;;;7.80;43.30;;;;;;5048728;28;20990;-64
2022/11/29 07:52:14;;;;;;;28.53;19.00;;;7.80;43.20;;;;;;5044176;28;20476;-64
2022/11/29 07:54:42;;;;;;;26.40;18.43;;;7.80;43.40;;;;;;5040072;28;20829;-64
2022/11/29 07:57:09;;;;;;;26.97;18.10;;;7.80;43.30;;;;;;5051532;28;20473;-64
2022/11/29 07:59:36;;;;;;;26.20;18.57;;;7.80;43.20;;;;;;5045088;28;20490;-64
2022/11/29 08:02:02;;;;;;;28.17;18.17;;;7.90;43.20;;;;;;5058467;28;20470;-64
2022/11/29 08:04:29;;;;;;;26.20;17.20;;;7.90;43.20;;;;;;5055107;28;20957;-64
2022/11/29 08:06:58;;;;;;;26.90;19.10;;;7.90;43.20;;;;;;5052086;28;21220;-64
2022/11/29 08:09:25;;;;;;;28.77;18.60;;;7.90;43.00;;;;;;5040875;28;20481;-63
2022/11/29 08:11:53;;;;;;;28.00;18.97;;;8.00;43.00;;;;;;5051949;28;20707;-64
2022/11/29 08:14:20;;;;;;;26.17;18.03;;;8.00;43.10;;;;;;5044477;28;20469;-64
2022/11/29 08:16:46;;;;;;;26.50;19.33;;;8.00;43.10;;;;;;5060176;28;20950;-64
2022/11/29 08:19:13;;;;;;;24.27;17.03;;;8.00;42.90;;;;;;5048842;28;21064;-64
2022/11/29 08:21:43;;;;;;;26.43;17.60;;;8.10;42.90;;;;;;5053893;28;20466;-64
2022/11/29 08:24:10;;;;;;;26.80;18.30;;;8.10;43.10;;;;;;5042921;28;20459;-63
2022/11/29 08:26:36;;;;;;;26.90;18.30;;;8.10;43.00;;;;;;5047227;28;20450;-64
2022/11/29 08:29:05;;;;;;;25.77;17.40;;;8.10;43.30;;;;;;5052690;28;20476;-64
2022/11/29 08:31:31;;;;;;;27.73;18.60;;;8.10;42.90;;;;;;5051898;28;20465;-64
2022/11/29 08:33:58;;;;;;;26.10;18.30;;;8.10;42.80;;;;;;5052375;28;20515;-64
2022/11/29 08:36:25;;;;;;;27.53;18.53;;;8.10;42.70;;;;;;5047797;28;20463;-64
2022/11/29 08:38:52;;;;;;;25.57;17.00;;;8.10;42.90;;;;;;5051736;28;20462;-64
2022/11/29 08:41:19;;;;;;;24.40;17.43;;;8.10;42.90;;;;;;5051830;28;20458;-64
2022/11/29 08:43:45;;;;;;;26.50;16.53;;;8.20;42.70;;;;;;5043576;28;20460;-64
2022/11/29 08:46:14;;;;;;;29.87;17.30;;;8.20;42.70;;;;;;5054413;28;20468;-64
2022/11/29 08:48:40;;;;;;;26.20;16.83;;;8.20;42.60;;;;;;5048845;28;20458;-64
2022/11/29 08:51:07;;;;;;;26.57;17.40;;;8.30;42.50;;;;;;5057587;28;20462;-64
2022/11/29 08:53:42;;;;;;;25.10;16.47;;;8.30;42.50;;;;;;5059856;28;20481;-64
2022/11/29 08:56:11;;;;;;;24.20;17.10;;;8.30;42.50;;;;;;5053163;28;22026;-64
2022/11/29 08:58:39;;;;;;;23.20;15.47;;;8.40;42.50;;;;;;5054478;28;20717;-64
2022/11/29 09:01:12;;;;;;;22.90;16.90;;;8.40;42.50;;;;;;5045383;28;20490;-64
2022/11/29 09:06:25;;;;;;;25.17;15.87;;;8.40;42.30;;;;;;5036504;28;20998;-64
2022/11/29 09:08:55;;;;;;;25.30;14.97;;;8.50;42.10;;;;;;5045409;28;20481;-64
2022/11/29 09:11:23;;;;;;;20.30;14.70;;;8.50;42.10;;;;;;5049243;28;20562;-64
2022/11/29 09:13:52;;;;;;;30.30;15.70;;;8.50;42.00;;;;;;5052762;28;20483;-64
2022/11/29 09:16:21;;;;;;;20.43;15.77;;;8.50;42.10;;;;;;5053169;28;20496;-64
2022/11/29 09:18:50;;;;;;;21.37;14.53;;;8.50;42.10;;;;;;5060000;28;20465;-64
2022/11/29 09:21:17;;;;;;;23.97;14.77;;;8.60;41.90;;;;;;5045232;28;20593;-64
2022/11/29 09:23:45;;;;;;;18.27;13.20;;;8.60;42.00;;;;;;5050338;28;20490;-64
2022/11/29 09:26:17;;;;;;;19.87;14.17;;;8.60;42.00;;;;;;5051432;28;20472;-64
2022/11/29 09:28:44;;;;;;;22.60;16.27;;;8.60;42.00;;;;;;5044770;28;20454;-64
2022/11/29 09:31:14;;;;;;;23.37;14.00;;;8.60;42.00;;;;;;5041052;28;20472;-64
2022/11/29 09:33:41;;;;;;;21.00;15.50;;;8.60;42.10;;;;;;5044150;28;20943;-64
2022/11/29 09:36:11;;;;;;;28.73;17.77;;;8.60;42.00;;;;;;5052115;28;20457;-64
2022/11/29 09:38:38;;;;;;;34.10;25.10;;;8.60;42.10;;;;;;5050315;28;20824;-64
2022/11/29 09:41:26;;;;;;;23.80;13.30;;;8.70;41.90;;;;;;5042365;28;20482;-64
2022/11/29 09:44:03;;;;;;;21.43;13.20;;;8.70;41.90;;;;;;5052211;28;20455;-64
2022/11/29 09:46:38;;;;;;;16.60;10.87;;;8.80;41.70;;;;;;5055372;28;20461;-64
2022/11/29 09:49:28;;;;;;;19.87;11.87;;;8.80;41.40;;;;;;5042915;28;20476;-64
2022/11/29 09:52:05;;;;;;;17.67;10.10;;;8.80;41.40;;;;;;5050554;28;20460;-64
2022/11/29 09:54:40;;;;;;;15.50;8.80;;;8.90;41.30;;;;;;5050524;28;20458;-64
2022/11/29 09:57:08;;;;;;;14.70;9.20;;;8.90;41.10;;;;;;5050329;28;20460;-64
2022/11/29 09:59:38;;;;;;;13.67;8.90;;;9.00;40.80;;;;;;5046570;28;20478;-64
2022/11/29 10:02:16;;;;;;;14.73;9.40;;;9.00;41.00;;;;;;5044407;28;20477;-63
2022/11/29 10:04:48;;;;;;;13.63;8.90;;;9.00;41.00;;;;;;5047331;28;20464;-64
2022/11/29 10:07:21;;;;;;;16.20;9.93;;;9.00;40.70;;;;;;5057511;28;20449;-63
2022/11/29 10:09:52;;;;;;;14.13;10.10;;;9.00;40.90;;;;;;5039215;28;20565;-63
2022/11/29 10:12:25;;;;;;;16.40;9.10;;;9.00;40.90;;;;;;5047042;28;20467;-64
2022/11/29 10:14:57;;;;;;;14.07;9.73;;;9.00;41.00;;;;;;5042866;28;20451;-63
2022/11/29 10:17:32;;;;;;;14.83;8.60;;;9.10;41.00;;;;;;5040150;28;20451;-63
2022/11/29 10:20:06;;;;;;;13.90;10.23;;;9.20;40.80;;;;;;5054831;28;20491;-63
2022/11/29 10:22:42;;;;;;;14.13;9.53;;;9.20;40.70;;;;;;5052226;28;20450;-63
2022/11/29 10:25:15;;;;;;;15.87;9.70;;;9.20;40.70;;;;;;5041616;28;20458;-63
2022/11/29 10:27:42;;;;;;;14.90;9.20;;;9.30;40.70;;;;;;5052424;28;20804;-63
2022/11/29 10:30:14;;;;;;;13.93;9.40;;;9.30;40.70;;;;;;5042725;28;20486;-63
2022/11/29 10:32:43;;;;;;;14.10;8.97;;;9.40;40.50;;;;;;5046047;28;20477;-63
2022/11/29 10:35:13;;;;;;;11.47;7.90;;;9.40;39.80;;;;;;5041861;28;20461;-63
2022/11/29 10:37:41;;;;;;;16.23;8.27;;;9.40;39.70;;;;;;5051925;28;21047;-63
2022/11/29 10:40:14;;;;;;;14.20;8.40;;;9.50;39.70;;;;;;5046161;28;20483;-63
2022/11/29 10:42:52;;;;;;;10.23;6.90;;;9.50;39.90;;;;;;5051233;28;20807;-63
2022/11/29 10:45:26;;;;;;;13.20;8.10;;;9.50;39.70;;;;;;5045718;28;20550;-63
2022/11/29 10:47:56;;;;;;;15.20;7.80;;;9.50;39.90;;;;;;5050669;28;20461;-63
2022/11/29 10:50:26;;;;;;;11.93;8.00;;;9.60;39.80;;;;;;5044730;28;20477;-63
2022/11/29 10:52:57;;;;;;;14.30;8.53;;;9.60;39.80;;;;;;5047522;28;20482;-63
2022/11/29 10:55:26;;;;;;;16.33;9.03;;;9.60;39.60;;;;;;5046425;28;20988;-63
2022/11/29 10:58:14;;;;;;;11.60;7.60;;;9.60;39.80;;;;;;5044168;28;20459;-63
2022/11/29 11:00:46;;;;;;;13.77;8.80;;;9.60;39.90;;;;;;5048499;28;20458;-63
2022/11/29 11:03:17;;;;;;;15.70;9.40;;;9.60;39.80;;;;;;5043519;28;20450;-63
2022/11/29 11:05:57;;;;;;;14.37;7.93;;;9.60;39.90;;;;;;5046470;28;20970;-63
2022/11/29 11:08:27;;;;;;;15.13;9.87;;;9.60;39.90;;;;;;5058164;28;20460;-63
2022/11/29 11:10:55;;;;;;;16.67;9.67;;;9.60;39.90;;;;;;5045000;28;20487;-63
2022/11/29 11:13:24;;;;;;;15.57;8.80;;;9.60;39.80;;;;;;5059410;28;20476;-63
2022/11/29 11:15:57;;;;;;;15.83;10.40;;;9.60;39.60;;;;;;5047617;28;20468;-63
2022/11/29 11:18:27;;;;;;;20.93;9.60;;;9.70;39.70;;;;;;5053043;28;20460;-63
2022/11/29 11:20:57;;;;;;;22.93;10.43;;;9.70;39.50;;;;;;5048296;28;20474;-63
2022/11/29 11:23:29;;;;;;;14.77;9.97;;;9.70;39.40;;;;;;5043473;28;20445;-64
2022/11/29 11:25:58;;;;;;;15.87;10.40;;;9.70;39.50;;;;;;5046662;28;21008;-64
2022/11/29 11:28:27;;;;;;;16.83;11.33;;;9.70;39.40;;;;;;5048617;28;20466;-64
2022/11/29 11:30:57;;;;;;;17.97;10.07;;;9.70;39.30;;;;;;5049564;28;20525;-63
2022/11/29 11:33:26;;;;;;;14.43;9.27;;;9.70;39.30;;;;;;5043423;28;20997;-63
2022/11/29 11:36:07;;;;;;;12.40;8.83;;;9.80;39.40;;;;;;5041666;28;20833;-64
2022/11/29 11:38:37;;;;;;;17.23;9.70;;;9.80;39.70;;;;;;5043138;28;20885;-64
2022/11/29 11:41:20;;;;;;;14.50;9.80;;;9.80;39.40;;;;;;5050032;28;20842;-64
2022/11/29 11:43:52;;;;;;;16.73;10.40;;;9.80;39.50;;;;;;5055228;28;20458;-64
2022/11/29 11:46:20;;;;;;;14.90;11.57;;;9.90;39.60;;;;;;5033868;28;20463;-64
2022/11/29 11:48:47;;;;;;;16.60;11.60;;;10.00;39.40;;;;;;5053427;28;20476;-65
2022/11/29 11:51:25;;;;;;;15.03;11.03;;;10.00;39.40;;;;;;5047307;28;20457;-65
2022/11/29 11:53:57;;;;;;;16.30;11.97;;;10.10;39.40;;;;;;5048154;28;20505;-64
2022/11/29 11:56:26;;;;;;;16.60;11.13;;;10.20;39.00;;;;;;5042298;28;20453;-64
2022/11/29 11:58:55;;;;;;;17.13;11.90;;;10.20;38.40;;;;;;5044331;28;20459;-64
2022/11/29 12:01:29;;;;;;;18.93;13.60;;;10.20;38.60;;;;;;5047170;28;20469;-64
2022/11/29 12:04:02;;;;;;;17.93;12.13;;;10.30;38.50;;;;;;5043378;28;20454;-63
2022/11/29 12:06:36;;;;;;;20.53;13.97;;;10.30;38.40;;;;;;5057017;28;20468;-64
2022/11/29 12:09:12;;;;;;;18.20;12.30;;;10.30;38.70;;;;;;5047240;28;20482;-64
2022/11/29 12:11:46;;;;;;;17.23;11.93;;;10.30;38.70;;;;;;5053371;28;21270;-65
2022/11/29 12:14:23;;;;;;;16.77;12.57;;;10.30;38.60;;;;;;5035543;28;20473;-64
2022/11/29 12:16:52;;;;;;;20.37;14.87;;;10.30;38.70;;;;;;5053164;28;20454;-64
2022/11/29 12:19:23;;;;;;;20.50;13.77;;;10.30;38.60;;;;;;5041714;28;20577;-64
2022/11/29 12:21:56;;;;;;;19.00;13.10;;;10.30;38.30;;;;;;5051819;28;21164;-65
2022/11/29 12:24:30;;;;;;;18.80;12.20;;;10.20;38.40;;;;;;5033553;28;20834;-65
2022/11/29 12:27:03;;;;;;;17.37;11.73;;;10.20;38.60;;;;;;5052242;28;20468;-64
2022/11/29 12:29:33;;;;;;;22.07;14.33;;;10.20;38.70;;;;;;5038874;28;20492;-64
2022/11/29 12:32:20;;;;;;;20.60;11.93;;;10.10;38.90;;;;;;5043635;28;20862;-64
2022/11/29 12:34:58;;;;;;;18.00;13.03;;;10.10;39.10;;;;;;5052705;28;20493;-64
2022/11/29 12:37:32;;;;;;;17.97;12.30;;;10.00;39.20;;;;;;5031960;28;20833;-64
2022/11/29 12:40:07;;;;;;;24.50;13.83;;;10.00;39.20;;;;;;5053466;28;20473;-64
2022/11/29 12:42:45;;;;;;;17.03;11.80;;;10.00;39.50;;;;;;5031781;28;20519;-64
2022/11/29 12:45:34;;;;;;;16.23;11.60;;;9.90;39.50;;;;;;5038661;28;20453;-64
2022/11/29 12:48:09;;;;;;;13.30;10.33;;;9.90;39.80;;;;;;5040403;28;20493;-64
2022/11/29 12:50:45;;;;;;;17.37;11.80;;;9.90;39.60;;;;;;5042855;28;20478;-64
2022/11/29 12:53:27;;;;;;;17.70;13.87;;;9.80;39.70;;;;;;5046402;28;20480;-64
2022/11/29 12:56:07;;;;;;;18.37;13.97;;;9.70;39.80;;;;;;5040988;28;20501;-64
2022/11/29 12:58:44;;;;;;;18.30;12.87;;;9.70;40.00;;;;;;5048305;28;20803;-64
2022/11/29 13:01:20;;;;;;;20.47;14.67;;;9.60;40.10;;;;;;5049012;28;20463;-64
2022/11/29 13:03:56;;;;;;;23.73;16.33;;;9.60;40.10;;;;;;5050405;28;21020;-64
2022/11/29 13:06:29;;;;;;;23.97;16.17;;;9.60;40.10;;;;;;5047703;28;20491;-64
2022/11/29 13:09:34;;;;;;;18.10;11.10;;;9.60;40.20;;;;;;5055646;28;20513;-64
2022/11/29 13:12:06;;;;;;;16.63;12.23;;;9.60;40.50;;;;;;5040066;28;21195;-64
2022/11/29 13:14:39;;;;;;;19.07;13.77;;;9.50;40.50;;;;;;5052936;28;20503;-64
2022/11/29 13:17:17;;;;;;;17.37;12.90;;;9.50;40.50;;;;;;5041369;28;20461;-64
2022/11/29 13:19:50;;;;;;;18.30;14.30;;;9.50;40.60;;;;;;5047978;28;20474;-64